createdAt,value
2018-08-31T00:02:35.973Z,100102.11
2018-08-31T00:05:15.324Z,100103.66
2018-08-31T00:07:53.814Z,100105.27
2018-08-31T00:10:21.415Z,100096.39
2018-08-31T00:12:48.970Z,100097.70
2018-08-31T00:15:16.663Z,100097.87
2018-08-31T00:17:44.188Z,100092.34
2018-08-31T00:20:11.761Z,100094.00
2018-08-31T00:22:39.301Z,100098.84
2018-08-31T00:25:06.891Z,100093.88
2018-08-31T00:27:56.154Z,100095.22
2018-08-31T00:30:46.452Z,100098.42
2018-08-31T00:33:15.811Z,100103.75
2018-08-31T00:35:43.372Z,100097.73
2018-08-31T00:38:11.399Z,100095.30
2018-08-31T00:40:39.214Z,100096.12
2018-08-31T00:43:06.767Z,100097.73
2018-08-31T00:45:34.352Z,100099.28
2018-08-31T00:48:01.877Z,100099.94
2018-08-31T00:50:29.428Z,100107.94
2018-08-31T00:52:57.093Z,100103.24
2018-08-31T00:55:24.626Z,100106.70
2018-08-31T00:57:52.279Z,100098.08
2018-08-31T01:00:19.768Z,100103.06
2018-08-31T01:02:47.569Z,100103.17
2018-08-31T01:05:15.097Z,100099.73
2018-08-31T01:07:42.727Z,100096.47
2018-08-31T01:10:11.330Z,100103.47
2018-08-31T01:12:38.861Z,100103.17
2018-08-31T01:15:06.430Z,100099.34
2018-08-31T01:17:33.957Z,100099.58
2018-08-31T01:20:01.635Z,100101.17
2018-08-31T01:22:29.196Z,100107.64
2018-08-31T01:24:56.784Z,100105.78
2018-08-31T01:27:24.613Z,100101.31
2018-08-31T01:29:52.165Z,100103.39
2018-08-31T01:32:19.737Z,100103.59
2018-08-31T01:34:47.265Z,100099.09
2018-08-31T01:37:14.859Z,100099.23
2018-08-31T01:39:42.483Z,100095.98
2018-08-31T01:42:10.054Z,100098.34
2018-08-31T01:44:37.611Z,100089.98
2018-08-31T01:47:05.193Z,100098.52
2018-08-31T01:49:32.741Z,100094.17
2018-08-31T01:52:00.432Z,100095.80
2018-08-31T01:54:27.973Z,100092.66
2018-08-31T01:56:55.504Z,100099.28
2018-08-31T01:59:23.113Z,100095.95
2018-08-31T02:01:50.814Z,100096.51
2018-08-31T02:04:18.422Z,100094.98
2018-08-31T02:06:46.076Z,100100.47
2018-08-31T02:09:13.688Z,100101.47
2018-08-31T02:11:41.281Z,100101.39
2018-08-31T02:14:08.794Z,100102.79
2018-08-31T02:16:36.545Z,100096.59
2018-08-31T02:19:04.073Z,100099.75
2018-08-31T02:21:31.663Z,100101.19
2018-08-31T02:23:59.245Z,100103.80
2018-08-31T02:26:26.769Z,100100.48
2018-08-31T02:28:54.351Z,100095.80
2018-08-31T02:31:21.883Z,100098.43
2018-08-31T02:33:49.465Z,100091.59
2018-08-31T02:36:17.089Z,100089.41
2018-08-31T02:38:44.655Z,100097.94
2018-08-31T02:41:12.253Z,100098.98
2018-08-31T02:43:39.795Z,100104.43
2018-08-31T02:46:07.408Z,100105.18
2018-08-31T02:48:34.952Z,100103.29
2018-08-31T02:51:02.503Z,100098.66
2018-08-31T02:53:30.404Z,100096.95
2018-08-31T02:55:57.961Z,100094.77
2018-08-31T02:58:25.499Z,100095.33
2018-08-31T03:00:53.054Z,100095.38
2018-08-31T03:03:28.106Z,100099.42
2018-08-31T03:05:55.668Z,100095.26
2018-08-31T03:08:23.261Z,100094.76
2018-08-31T03:10:50.819Z,100091.09
2018-08-31T03:13:18.362Z,100095.55
2018-08-31T03:15:45.919Z,100094.34
2018-08-31T03:18:13.524Z,100091.08
2018-08-31T03:20:41.141Z,100091.55
2018-08-31T03:23:08.731Z,100097.59
2018-08-31T03:25:36.404Z,100092.64
2018-08-31T03:28:03.959Z,100097.47
2018-08-31T03:30:31.509Z,100089.69
2018-08-31T03:32:59.103Z,100090.19
2018-08-31T03:35:26.682Z,100088.55
2018-08-31T03:37:54.369Z,100088.52
2018-08-31T03:40:21.946Z,100090.04
2018-08-31T03:42:49.487Z,100085.90
2018-08-31T03:45:17.051Z,100092.06
2018-08-31T03:47:44.581Z,100088.58
2018-08-31T03:50:12.149Z,100093.61
2018-08-31T03:52:39.751Z,100087.20
2018-08-31T03:55:07.293Z,100090.64
2018-08-31T03:57:34.861Z,100085.73
2018-08-31T04:00:02.431Z,100095.82
2018-08-31T04:02:30.156Z,100092.20
2018-08-31T04:04:57.705Z,100089.77
2018-08-31T04:07:25.257Z,100092.36
2018-08-31T04:09:52.964Z,100090.58
2018-08-31T04:12:20.553Z,100093.56
2018-08-31T04:14:48.080Z,100090.95
2018-08-31T04:17:15.654Z,100094.41
2018-08-31T04:19:43.208Z,100090.62
2018-08-31T04:22:11.490Z,100093.34
2018-08-31T04:24:39.140Z,100093.80
2018-08-31T04:27:06.665Z,100095.86
2018-08-31T04:29:34.270Z,100082.39
2018-08-31T04:32:01.834Z,100089.36
2018-08-31T04:34:29.376Z,100093.20
2018-08-31T04:36:56.913Z,100094.31
2018-08-31T04:39:24.482Z,100097.42
2018-08-31T04:41:52.093Z,100099.61
2018-08-31T04:44:19.686Z,100097.61
2018-08-31T04:46:47.281Z,100092.38
2018-08-31T04:49:14.821Z,100102.22
2018-08-31T04:51:42.436Z,100099.05
2018-08-31T04:54:09.976Z,100102.10
2018-08-31T04:56:37.551Z,100103.38
2018-08-31T04:59:05.094Z,100113.33
2018-08-31T05:01:32.658Z,100111.34
2018-08-31T05:04:00.212Z,100115.39
2018-08-31T05:06:27.815Z,100122.17
2018-08-31T05:08:55.360Z,100118.98
2018-08-31T05:11:22.937Z,100125.91
2018-08-31T05:13:50.473Z,100121.63
2018-08-31T05:16:18.070Z,100122.31
2018-08-31T05:18:45.618Z,100121.06
2018-08-31T05:21:13.213Z,100119.58
2018-08-31T05:23:40.806Z,100121.83
2018-08-31T05:26:08.420Z,100120.80
2018-08-31T05:28:36.131Z,100122.61
2018-08-31T05:31:03.743Z,100120.49
2018-08-31T05:33:31.882Z,100121.58
2018-08-31T05:35:59.512Z,100126.66
2018-08-31T05:38:28.134Z,100127.78
2018-08-31T05:40:55.669Z,100119.94
2018-08-31T05:43:23.285Z,100127.89
2018-08-31T05:45:50.843Z,100131.66
2018-08-31T05:48:18.367Z,100126.86
2018-08-31T05:50:45.964Z,100133.13
2018-08-31T05:53:13.507Z,100133.75
2018-08-31T05:55:41.284Z,100135.19
2018-08-31T05:58:08.856Z,100135.95
2018-08-31T06:00:36.581Z,100138.20
2018-08-31T06:03:04.256Z,100139.04
2018-08-31T06:05:31.991Z,100135.95
2018-08-31T06:07:59.599Z,100134.02
2018-08-31T06:10:27.203Z,100139.73
2018-08-31T06:12:54.773Z,100135.67
2018-08-31T06:15:22.466Z,100138.41
2018-08-31T06:17:50.264Z,100138.81
2018-08-31T06:20:18.020Z,100136.99
2018-08-31T06:22:45.926Z,100141.77
2018-08-31T06:25:13.677Z,100142.29
2018-08-31T06:27:41.469Z,100143.55
2018-08-31T06:30:09.116Z,100146.38
2018-08-31T06:32:36.698Z,100150.62
2018-08-31T06:35:04.329Z,100147.64
2018-08-31T06:37:32.981Z,100149.33
2018-08-31T06:40:00.784Z,100154.01
2018-08-31T06:42:28.360Z,100159.13
2018-08-31T06:44:55.980Z,100153.55
2018-08-31T06:47:23.507Z,100150.84
2018-08-31T06:49:51.085Z,100155.14
2018-08-31T06:52:18.713Z,100153.23
2018-08-31T06:54:46.403Z,100153.50
2018-08-31T06:57:13.961Z,100152.02
2018-08-31T06:59:41.686Z,100150.89
2018-08-31T07:02:09.375Z,100155.93
2018-08-31T07:04:36.905Z,100155.58
2018-08-31T07:07:04.683Z,100157.84
2018-08-31T07:09:32.293Z,100159.31
2018-08-31T07:11:59.852Z,100158.83
2018-08-31T07:14:27.667Z,100161.56
2018-08-31T07:16:55.430Z,100158.71
2018-08-31T07:19:22.986Z,100159.41
2018-08-31T07:21:50.659Z,100159.88
2018-08-31T07:24:18.385Z,100157.80
2018-08-31T07:26:46.262Z,100164.05
2018-08-31T07:29:14.842Z,100163.34
2018-08-31T07:31:42.439Z,100166.08
2018-08-31T07:34:10.021Z,100172.14
2018-08-31T07:36:37.574Z,100168.93
2018-08-31T07:39:05.175Z,100176.60
2018-08-31T07:41:32.787Z,100180.06
2018-08-31T07:44:00.580Z,100182.71
2018-08-31T07:46:28.147Z,100186.44
2018-08-31T07:48:55.759Z,100181.62
2018-08-31T07:51:23.521Z,100180.75
2018-08-31T07:53:51.157Z,100181.62
2018-08-31T07:56:18.723Z,100179.75
2018-08-31T07:58:46.298Z,100183.27
2018-08-31T08:01:13.985Z,100188.66
2018-08-31T08:03:41.707Z,100187.03
2018-08-31T08:06:09.282Z,100192.67
2018-08-31T08:08:36.934Z,100194.08
2018-08-31T08:11:04.451Z,100195.95
2018-08-31T08:13:32.212Z,100193.64
2018-08-31T08:15:59.969Z,100197.55
2018-08-31T08:18:27.876Z,100198.83
2018-08-31T08:20:55.461Z,100196.75
2018-08-31T08:23:22.993Z,100207.63
2018-08-31T08:25:50.729Z,100193.31
2018-08-31T08:28:18.331Z,100194.81
2018-08-31T08:30:45.923Z,100195.78
2018-08-31T08:33:13.769Z,100203.22
2018-08-31T08:35:41.700Z,100198.20
2018-08-31T08:38:09.437Z,100196.41
2018-08-31T08:40:36.954Z,100187.20
2018-08-31T08:43:04.603Z,100189.31
2018-08-31T08:45:32.393Z,100196.97
2018-08-31T08:47:59.946Z,100189.72
2018-08-31T08:50:27.558Z,100191.86
2018-08-31T08:52:55.317Z,100193.45
2018-08-31T08:55:23.052Z,100195.22
2018-08-31T08:57:50.841Z,100192.35
2018-08-31T09:00:18.702Z,100198.97
2018-08-31T09:02:46.395Z,100190.13
2018-08-31T09:05:14.030Z,100193.21
2018-08-31T09:07:41.933Z,100183.86
2018-08-31T09:10:09.501Z,100189.13
2018-08-31T09:12:37.069Z,100188.41
2018-08-31T09:15:04.871Z,100187.22
2018-08-31T09:17:32.593Z,100182.97
2018-08-31T09:20:00.422Z,100181.01
2018-08-31T09:22:28.062Z,100182.35
2018-08-31T09:24:55.860Z,100182.75
2018-08-31T09:27:23.452Z,100183.39
2018-08-31T09:29:51.130Z,100181.59
2018-08-31T09:32:19.025Z,100179.37
2018-08-31T09:34:46.665Z,100175.13
2018-08-31T09:37:14.291Z,100175.50
2018-08-31T09:39:41.919Z,100175.47
2018-08-31T09:42:09.711Z,100178.77
2018-08-31T09:44:37.445Z,100179.77
2018-08-31T09:47:05.148Z,100179.20
2018-08-31T09:49:33.051Z,100172.92
2018-08-31T09:52:00.601Z,100171.01
2018-08-31T09:54:28.206Z,100169.64
2018-08-31T09:56:55.937Z,100174.53
2018-08-31T09:59:23.654Z,100170.14
2018-08-31T10:01:51.277Z,100160.09
2018-08-31T10:04:18.853Z,100165.59
2018-08-31T10:06:46.690Z,100164.54
2018-08-31T10:09:14.394Z,100160.70
2018-08-31T10:11:42.147Z,100165.58
2018-08-31T10:14:09.681Z,100165.63
2018-08-31T10:16:37.551Z,100169.84
2018-08-31T10:19:06.123Z,100174.70
2018-08-31T10:21:33.919Z,100172.90
2018-08-31T10:24:01.645Z,100176.96
2018-08-31T10:26:29.161Z,100171.33
2018-08-31T10:28:56.893Z,100169.70
2018-08-31T10:31:24.646Z,100175.42
2018-08-31T10:33:52.400Z,100170.35
2018-08-31T10:36:20.201Z,100168.58
2018-08-31T10:38:48.869Z,100166.00
2018-08-31T10:41:16.420Z,100161.99
2018-08-31T10:43:44.103Z,100169.81
2018-08-31T10:46:11.673Z,100165.20
2018-08-31T10:48:39.305Z,100160.62
2018-08-31T10:51:07.106Z,100161.94
2018-08-31T10:53:34.657Z,100157.73
2018-08-31T10:56:02.328Z,100168.53
2018-08-31T10:58:30.057Z,100166.59
2018-08-31T11:00:57.859Z,100165.13
2018-08-31T11:03:25.618Z,100167.22
2018-08-31T11:05:53.201Z,100171.61
2018-08-31T11:08:20.756Z,100165.81
2018-08-31T11:10:48.306Z,100170.38
2018-08-31T11:13:15.891Z,100169.91
2018-08-31T11:15:43.453Z,100179.36
2018-08-31T11:18:11.583Z,100180.70
2018-08-31T11:20:40.342Z,100174.30
2018-08-31T11:23:08.018Z,100178.20
2018-08-31T11:25:35.675Z,100179.16
2018-08-31T11:28:03.381Z,100172.31
2018-08-31T11:30:30.965Z,100173.80
2018-08-31T11:32:58.524Z,100170.19
2018-08-31T11:35:26.183Z,100172.31
2018-08-31T11:37:53.789Z,100172.08
2018-08-31T11:40:21.500Z,100172.28
2018-08-31T11:42:49.063Z,100171.77
2018-08-31T11:45:16.907Z,100167.72
2018-08-31T11:47:44.489Z,100176.22
2018-08-31T11:50:12.008Z,100171.67
2018-08-31T11:52:39.770Z,100166.63
2018-08-31T11:55:07.452Z,100162.11
2018-08-31T11:57:35.249Z,100159.84
2018-08-31T12:00:03.001Z,100157.36
2018-08-31T12:02:30.799Z,100152.77
2018-08-31T12:04:58.353Z,100154.70
2018-08-31T12:07:26.223Z,100154.69
2018-08-31T12:09:54.594Z,100153.00
2018-08-31T12:12:22.187Z,100150.42
2018-08-31T12:14:50.942Z,100145.83
2018-08-31T12:17:19.553Z,100153.16
2018-08-31T12:19:47.186Z,100149.41
2018-08-31T12:22:14.985Z,100144.41
2018-08-31T12:24:42.751Z,100151.08
2018-08-31T12:27:10.508Z,100144.80
2018-08-31T12:29:38.132Z,100142.36
2018-08-31T12:32:05.662Z,100134.05
2018-08-31T12:34:33.366Z,100134.91
2018-08-31T12:37:01.115Z,100137.03
2018-08-31T12:39:28.752Z,100129.14
2018-08-31T12:41:56.341Z,100130.39
2018-08-31T12:44:24.140Z,100127.06
2018-08-31T12:46:51.890Z,100143.30
2018-08-31T12:49:20.209Z,100139.25
2018-08-31T12:51:47.932Z,100137.56
2018-08-31T12:54:15.941Z,100137.55
2018-08-31T12:56:43.792Z,100136.72
2018-08-31T12:59:11.372Z,100143.42
2018-08-31T13:01:38.898Z,100131.88
2018-08-31T13:04:06.674Z,100139.14
2018-08-31T13:06:34.231Z,100130.24
2018-08-31T13:09:02.041Z,100130.34
2018-08-31T13:11:29.601Z,100130.01
2018-08-31T13:13:57.155Z,100125.34
2018-08-31T13:16:24.748Z,100130.34
2018-08-31T13:18:52.311Z,100123.70
2018-08-31T13:21:19.905Z,100128.37
2018-08-31T13:23:47.639Z,100122.00
2018-08-31T13:26:15.192Z,100120.66
2018-08-31T13:28:42.832Z,100120.56
2018-08-31T13:31:10.398Z,100117.78
2018-08-31T13:33:37.927Z,100116.19
2018-08-31T13:36:05.507Z,100111.90
2018-08-31T13:38:33.077Z,100113.40
2018-08-31T13:41:00.597Z,100120.13
2018-08-31T13:43:28.338Z,100114.16
2018-08-31T13:45:56.045Z,100122.50
2018-08-31T13:48:23.670Z,100118.12
2018-08-31T13:50:51.256Z,100111.56
2018-08-31T13:53:19.059Z,100109.97
2018-08-31T13:55:46.813Z,100109.81
2018-08-31T13:58:14.691Z,100122.30
2018-08-31T14:00:42.416Z,100120.85
2018-08-31T14:03:10.252Z,100118.24
2018-08-31T14:05:37.923Z,100110.16
2018-08-31T14:08:05.816Z,100117.57
2018-08-31T14:10:33.575Z,100111.84
2018-08-31T14:13:01.187Z,100113.98
2018-08-31T14:15:28.887Z,100120.66
2018-08-31T14:17:56.544Z,100114.80
2018-08-31T14:20:25.130Z,100117.19
2018-08-31T14:22:53.305Z,100120.30
2018-08-31T14:25:21.438Z,100125.52
2018-08-31T14:27:50.153Z,100121.17
2018-08-31T14:30:18.050Z,100120.30
2018-08-31T14:32:47.665Z,100119.22
2018-08-31T14:35:16.271Z,100116.92
2018-08-31T14:37:44.157Z,100114.56
2018-08-31T14:40:11.993Z,100118.92
2018-08-31T14:42:39.699Z,100118.88
2018-08-31T14:45:07.391Z,100122.47
2018-08-31T14:47:35.319Z,100119.64
2018-08-31T14:50:03.373Z,100119.55
2018-08-31T14:52:31.001Z,100121.91
2018-08-31T14:54:58.750Z,100119.30
2018-08-31T14:57:26.726Z,100116.63
2018-08-31T14:59:54.751Z,100115.08
2018-08-31T15:02:22.465Z,100105.77
2018-08-31T15:04:50.154Z,100116.06
2018-08-31T15:07:17.948Z,100115.33
2018-08-31T15:09:45.537Z,100117.52
2018-08-31T15:12:13.102Z,100119.59
2018-08-31T15:14:40.867Z,100124.43
2018-08-31T15:17:08.514Z,100120.77
2018-08-31T15:19:36.053Z,100119.17
2018-08-31T15:22:03.683Z,100119.50
2018-08-31T15:24:31.242Z,100122.95
2018-08-31T15:26:58.833Z,100124.23
2018-08-31T15:29:26.393Z,100127.98
2018-08-31T15:31:53.950Z,100125.58
2018-08-31T15:34:21.528Z,100127.52
2018-08-31T15:36:49.068Z,100123.18
2018-08-31T15:39:16.660Z,100118.41
2018-08-31T15:41:48.107Z,100129.63
2018-08-31T15:44:15.681Z,100119.64
2018-08-31T15:46:43.320Z,100116.46
2018-08-31T15:49:10.911Z,100124.48
2018-08-31T15:51:38.460Z,100117.72
2018-08-31T15:54:06.033Z,100122.38
2018-08-31T15:56:33.598Z,100119.94
2018-08-31T15:59:01.140Z,100119.37
2018-08-31T16:01:28.672Z,100123.36
2018-08-31T16:03:56.290Z,100125.91
2018-08-31T16:06:23.842Z,100124.06
2018-08-31T16:08:51.426Z,100122.03
2018-08-31T16:11:19.013Z,100123.47
2018-08-31T16:13:46.637Z,100120.86
2018-08-31T16:16:14.179Z,100125.67
2018-08-31T16:18:42.774Z,100123.47
2018-08-31T16:21:10.394Z,100128.94
2018-08-31T16:23:38.037Z,100124.30
2018-08-31T16:26:05.686Z,100123.52
2018-08-31T16:28:33.214Z,100121.03
2018-08-31T16:31:00.791Z,100114.78
2018-08-31T16:33:28.379Z,100115.02
2018-08-31T16:35:55.976Z,100115.97
2018-08-31T16:38:23.519Z,100122.55
2018-08-31T16:40:51.123Z,100117.73
2018-08-31T16:43:18.654Z,100118.63
2018-08-31T16:45:46.366Z,100119.06
2018-08-31T16:48:17.229Z,100123.91
2018-08-31T16:50:45.062Z,100124.47
2018-08-31T16:53:12.639Z,100121.45
2018-08-31T16:55:40.160Z,100117.14
2018-08-31T16:58:07.693Z,100115.88
2018-08-31T17:00:35.283Z,100123.22
2018-08-31T17:03:02.793Z,100122.72
2018-08-31T17:05:30.409Z,100119.95
2018-08-31T17:07:58.987Z,100124.77
2018-08-31T17:10:26.529Z,100122.83
2018-08-31T17:12:54.121Z,100125.46
2018-08-31T17:15:21.699Z,100126.70
2018-08-31T17:17:49.230Z,100133.73
2018-08-31T17:20:16.836Z,100135.91
2018-08-31T17:22:44.406Z,100134.27
2018-08-31T17:25:11.927Z,100137.08
2018-08-31T17:27:44.877Z,100132.25
2018-08-31T17:30:12.395Z,100129.66
2018-08-31T17:32:55.849Z,100135.92
2018-08-31T17:35:38.305Z,100134.05
2018-08-31T17:38:05.873Z,100130.70
2018-08-31T17:40:42.015Z,100138.20
2018-08-31T17:43:09.605Z,100137.88
2018-08-31T17:45:37.203Z,100153.16
2018-08-31T17:48:04.831Z,100153.33
2018-08-31T17:50:32.528Z,100153.92
2018-08-31T17:53:02.109Z,100153.31
2018-08-31T17:55:29.664Z,100154.77
2018-08-31T17:57:57.410Z,100158.72
2018-08-31T18:00:24.953Z,100159.98
2018-08-31T18:02:52.792Z,100158.97
2018-08-31T18:05:24.160Z,100162.78
2018-08-31T18:07:51.814Z,100165.95
2018-08-31T18:10:19.436Z,100169.09
2018-08-31T18:12:47.828Z,100170.39
2018-08-31T18:15:15.443Z,100177.92
2018-08-31T18:17:43.691Z,100174.01
2018-08-31T18:20:11.633Z,100180.91
2018-08-31T18:22:40.274Z,100184.56
2018-08-31T18:25:07.809Z,100185.19
2018-08-31T18:27:35.331Z,100188.31
2018-08-31T18:30:02.944Z,100186.69
2018-08-31T18:32:32.921Z,100196.41
2018-08-31T18:35:00.566Z,100196.60
2018-08-31T18:37:28.155Z,100190.64
2018-08-31T18:39:55.789Z,100197.27
2018-08-31T18:42:23.318Z,100201.11
2018-08-31T18:44:51.237Z,100194.81
2018-08-31T18:47:18.798Z,100198.47
2018-08-31T18:49:46.588Z,100202.58
2018-08-31T18:52:14.207Z,100202.89
2018-08-31T18:54:41.721Z,100212.20
2018-08-31T18:57:09.250Z,100217.23
2018-08-31T18:59:36.905Z,100222.12
2018-08-31T19:02:04.449Z,100224.63
2018-08-31T19:04:34.170Z,100230.00
2018-08-31T19:07:02.881Z,100221.30
2018-08-31T19:09:30.585Z,100225.87
2018-08-31T19:11:59.312Z,100232.23
2018-08-31T19:14:26.994Z,100237.70
2018-08-31T19:16:56.671Z,100240.09
2018-08-31T19:19:25.272Z,100244.79
2018-08-31T19:21:52.802Z,100248.27
2018-08-31T19:24:21.483Z,100243.53
2018-08-31T19:26:52.608Z,100247.55
2018-08-31T19:29:20.235Z,100247.77
2018-08-31T19:31:48.711Z,100255.51
2018-08-31T19:34:16.266Z,100253.81
2018-08-31T19:36:44.911Z,100256.73
2018-08-31T19:39:12.615Z,100260.17
2018-08-31T19:41:40.174Z,100259.70
2018-08-31T19:44:08.702Z,100263.14
2018-08-31T19:46:36.302Z,100256.36
2018-08-31T19:49:05.865Z,100257.66
2018-08-31T19:51:37.056Z,100262.15
2018-08-31T19:54:04.694Z,100259.62
2018-08-31T19:56:32.234Z,100255.25
2018-08-31T19:58:59.800Z,100259.62
2018-08-31T20:01:27.360Z,100256.05
2018-08-31T20:03:55.850Z,100261.11
2018-08-31T20:06:25.508Z,100257.02
2018-08-31T20:08:53.026Z,100263.65
2018-08-31T20:11:20.602Z,100267.29
2018-08-31T20:13:48.182Z,100267.37
2018-08-31T20:16:17.818Z,100268.72
2018-08-31T20:18:45.404Z,100265.60
2018-08-31T20:21:12.938Z,100269.98
2018-08-31T20:23:43.750Z,100272.06
2018-08-31T20:26:11.615Z,100268.25
2018-08-31T20:28:39.194Z,100277.30
2018-08-31T20:31:06.763Z,100282.33
2018-08-31T20:33:34.307Z,100283.45
2018-08-31T20:36:03.842Z,100280.80
2018-08-31T20:38:31.402Z,100278.83
2018-08-31T20:40:58.958Z,100280.28
2018-08-31T20:43:26.515Z,100282.48
2018-08-31T20:45:54.050Z,100280.63
2018-08-31T20:48:22.709Z,100290.98
2018-08-31T20:50:50.306Z,100284.91
2018-08-31T20:53:17.836Z,100286.35
2018-08-31T20:55:45.380Z,100293.34
2018-08-31T20:58:12.948Z,100288.61
2018-08-31T21:00:40.538Z,100295.38
2018-08-31T21:03:13.588Z,100302.88
2018-08-31T21:05:41.150Z,100308.44
2018-08-31T21:08:08.720Z,100305.96
2018-08-31T21:10:36.276Z,100304.37
2018-08-31T21:13:03.808Z,100303.46
2018-08-31T21:15:54.133Z,100308.77
2018-08-31T21:18:21.662Z,100306.11
2018-08-31T21:20:49.250Z,100313.59
2018-08-31T21:23:16.926Z,100315.34
2018-08-31T21:25:44.512Z,100311.62
2018-08-31T21:28:13.061Z,100315.13
2018-08-31T21:30:46.056Z,100318.30
2018-08-31T21:33:16.100Z,100320.11
2018-08-31T21:35:43.788Z,100325.63
2018-08-31T21:38:11.645Z,100318.22
2018-08-31T21:40:39.202Z,100323.06
2018-08-31T21:43:06.813Z,100320.70
2018-08-31T21:45:35.428Z,100320.47
2018-08-31T21:48:05.093Z,100322.28
2018-08-31T21:50:32.705Z,100323.58
2018-08-31T21:53:00.247Z,100320.83
2018-08-31T21:55:27.859Z,100324.17
2018-08-31T21:57:57.361Z,100329.00
2018-08-31T22:00:29.053Z,100328.34
2018-08-31T22:02:56.611Z,100321.80
2018-08-31T22:05:24.128Z,100318.66
2018-08-31T22:07:51.697Z,100321.00
2018-08-31T22:10:19.230Z,100324.33
2018-08-31T22:12:48.873Z,100324.72
2018-08-31T22:15:16.417Z,100328.06
2018-08-31T22:17:44.081Z,100331.02
2018-08-31T22:20:15.902Z,100325.47
2018-08-31T22:22:44.533Z,100327.95
2018-08-31T22:25:12.288Z,100330.75
2018-08-31T22:27:39.864Z,100332.53
2018-08-31T22:30:08.470Z,100329.41
2018-08-31T22:32:36.063Z,100324.52
2018-08-31T22:35:03.639Z,100324.03
2018-08-31T22:37:32.270Z,100322.03
2018-08-31T22:39:59.778Z,100323.70
2018-08-31T22:42:27.384Z,100315.63
2018-08-31T22:44:54.896Z,100318.05
2018-08-31T22:47:22.439Z,100320.18
2018-08-31T22:49:50.002Z,100317.54
2018-08-31T22:52:17.531Z,100316.80
2018-08-31T22:54:47.038Z,100317.23
2018-08-31T22:57:14.635Z,100323.07
2018-08-31T22:59:42.227Z,100311.59
2018-08-31T23:02:16.174Z,100320.52
2018-08-31T23:04:43.912Z,100315.45
2018-08-31T23:07:11.482Z,100322.88
2018-08-31T23:09:39.065Z,100326.80
2018-08-31T23:12:06.613Z,100327.69
2018-08-31T23:14:34.144Z,100331.52
2018-08-31T23:17:01.744Z,100331.82
2018-08-31T23:19:29.256Z,100332.64
2018-08-31T23:21:56.781Z,100321.64
2018-08-31T23:24:24.347Z,100321.05
2018-08-31T23:26:51.888Z,100330.23
2018-08-31T23:29:19.445Z,100327.57
2018-08-31T23:31:47.017Z,100332.11
2018-08-31T23:34:14.557Z,100337.47
2018-08-31T23:36:42.129Z,100332.12
2018-08-31T23:39:09.712Z,100329.19
2018-08-31T23:41:37.267Z,100327.08
2018-08-31T23:44:04.803Z,100330.05
2018-08-31T23:46:32.329Z,100324.44
2018-08-31T23:48:59.917Z,100323.49
2018-08-31T23:51:27.488Z,100324.69
2018-08-31T23:53:56.162Z,100328.36
2018-08-31T23:56:23.721Z,100330.15
2018-08-31T23:58:51.312Z,100328.83
